createdAt,value
2023-04-06T00:01:06.550Z,75.80
2023-04-06T00:03:33.877Z,76.00
2023-04-06T00:06:01.054Z,75.80
2023-04-06T00:08:28.786Z,76.00
2023-04-06T00:10:56.193Z,76.80
2023-04-06T00:13:23.428Z,77.20
2023-04-06T00:15:50.630Z,77.80
2023-04-06T00:18:18.035Z,77.40
2023-04-06T00:20:45.212Z,77.00
2023-04-06T00:23:12.422Z,76.30
2023-04-06T00:25:39.562Z,76.30
2023-04-06T00:28:06.838Z,77.10
2023-04-06T00:33:01.631Z,86.30
2023-04-06T00:35:28.871Z,97.40
2023-04-06T00:37:56.249Z,76.00
2023-04-06T00:40:23.484Z,76.10
2023-04-06T00:42:51.086Z,76.10
2023-04-06T00:45:18.389Z,76.80
2023-04-06T00:47:45.664Z,77.40
2023-04-06T00:50:12.932Z,77.10
2023-04-06T00:52:40.159Z,77.00
2023-04-06T00:55:07.796Z,77.10
2023-04-06T00:57:35.166Z,78.10
2023-04-06T01:00:02.408Z,78.20
2023-04-06T01:02:29.796Z,77.90
2023-04-06T01:04:57.496Z,78.00
2023-04-06T01:07:24.782Z,78.00
2023-04-06T01:09:57.422Z,78.20
2023-04-06T01:12:25.931Z,78.50
2023-04-06T01:14:53.226Z,78.60
2023-04-06T01:17:20.497Z,79.70
2023-04-06T01:19:47.774Z,80.30
2023-04-06T01:22:18.672Z,80.50
2023-04-06T01:24:46.486Z,80.10
2023-04-06T01:27:14.653Z,94.20
2023-04-06T01:29:41.799Z,88.40
2023-04-06T01:32:09.505Z,80.10
2023-04-06T01:34:36.710Z,78.90
2023-04-06T01:37:03.922Z,78.70
2023-04-06T01:39:31.328Z,79.00
2023-04-06T01:41:58.496Z,79.70
2023-04-06T01:44:25.759Z,79.60
2023-04-06T01:46:53.007Z,80.10
2023-04-06T01:49:20.283Z,80.50
2023-04-06T01:51:47.415Z,80.70
2023-04-06T01:54:14.662Z,80.90
2023-04-06T01:56:41.961Z,81.60
2023-04-06T01:59:09.456Z,81.90
2023-04-06T02:01:37.048Z,81.20
2023-04-06T02:04:04.312Z,81.60
2023-04-06T02:06:31.439Z,81.80
2023-04-06T02:08:58.637Z,83.00
2023-04-06T02:11:25.859Z,82.30
2023-04-06T02:13:53.009Z,82.50
2023-04-06T02:16:20.179Z,82.70
2023-04-06T02:18:47.405Z,83.20
2023-04-06T02:21:14.596Z,83.80
2023-04-06T02:23:41.748Z,83.40
2023-04-06T02:26:08.931Z,83.10
2023-04-06T02:28:36.046Z,83.10
2023-04-06T02:31:03.483Z,83.30
2023-04-06T02:33:31.082Z,83.70
2023-04-06T02:35:58.338Z,83.30
2023-04-06T02:38:25.552Z,83.20
2023-04-06T02:40:52.736Z,83.20
2023-04-06T02:43:20.797Z,83.20
2023-04-06T02:45:47.995Z,83.50
2023-04-06T02:48:15.517Z,83.70
2023-04-06T02:50:42.689Z,83.70
2023-04-06T02:53:09.865Z,84.20
2023-04-06T02:55:37.085Z,84.30
2023-04-06T02:58:04.302Z,84.90
2023-04-06T03:00:31.408Z,84.90
2023-04-06T03:02:58.754Z,84.10
2023-04-06T03:05:25.947Z,84.40
2023-04-06T03:07:53.192Z,84.90
2023-04-06T03:10:20.590Z,84.90
2023-04-06T03:12:47.947Z,84.90
2023-04-06T03:15:15.404Z,84.40
2023-04-06T03:17:42.537Z,85.70
2023-04-06T03:20:10.280Z,85.60
2023-04-06T03:22:37.755Z,85.50
2023-04-06T03:25:05.481Z,85.60
2023-04-06T03:27:32.708Z,85.90
2023-04-06T03:29:59.817Z,85.80
2023-04-06T03:32:27.003Z,86.00
2023-04-06T03:34:54.239Z,85.60
2023-04-06T03:37:21.389Z,85.30
2023-04-06T03:39:48.501Z,85.60
2023-04-06T03:42:15.729Z,85.80
2023-04-06T03:44:42.974Z,91.60
2023-04-06T03:47:10.164Z,99.90
2023-04-06T03:49:38.580Z,99.90
2023-04-06T03:52:07.137Z,99.90
2023-04-06T03:54:34.272Z,99.90
2023-04-06T03:57:01.480Z,99.90
2023-04-06T03:59:28.677Z,99.90
2023-04-06T04:01:56.307Z,95.30
2023-04-06T04:04:23.521Z,98.40
2023-04-06T04:06:50.746Z,98.20
2023-04-06T04:09:17.950Z,98.30
2023-04-06T04:11:46.611Z,98.70
2023-04-06T04:14:14.000Z,98.70
2023-04-06T04:16:41.414Z,98.60
2023-04-06T04:19:09.507Z,98.60
2023-04-06T04:21:47.632Z,98.60
2023-04-06T04:24:15.195Z,99.00
2023-04-06T04:26:42.686Z,96.40
2023-04-06T04:29:10.464Z,92.90
2023-04-06T04:31:38.039Z,93.30
2023-04-06T04:34:05.445Z,92.40
2023-04-06T04:36:32.637Z,92.20
2023-04-06T04:39:00.182Z,92.30
2023-04-06T04:41:27.592Z,92.00
2023-04-06T04:43:54.794Z,93.60
2023-04-06T04:46:22.079Z,97.10
2023-04-06T04:48:49.387Z,97.30
2023-04-06T04:51:16.940Z,96.90
2023-04-06T04:53:44.198Z,96.50
2023-04-06T04:56:11.415Z,91.90
2023-04-06T04:58:38.682Z,92.30
2023-04-06T05:01:06.966Z,91.30
2023-04-06T05:03:34.461Z,91.50
2023-04-06T05:06:02.508Z,91.60
2023-04-06T05:08:29.674Z,91.30
2023-04-06T05:10:57.048Z,91.20
2023-04-06T05:13:24.356Z,91.20
2023-04-06T05:15:51.597Z,91.10
2023-04-06T05:18:18.848Z,91.10
2023-04-06T05:20:46.316Z,91.00
2023-04-06T05:23:13.510Z,91.00
2023-04-06T05:25:44.088Z,90.90
2023-04-06T05:28:11.483Z,90.40
2023-04-06T05:30:38.784Z,91.00
2023-04-06T05:33:06.410Z,91.00
2023-04-06T05:35:33.757Z,91.10
2023-04-06T05:38:01.036Z,91.10
2023-04-06T05:40:28.266Z,91.00
2023-04-06T05:42:55.525Z,90.90
2023-04-06T05:45:22.676Z,90.90
2023-04-06T05:47:50.052Z,91.00
2023-04-06T05:50:17.325Z,91.20
2023-04-06T05:52:45.436Z,91.50
2023-04-06T05:55:12.830Z,91.30
2023-04-06T05:57:40.151Z,91.30
2023-04-06T06:00:16.076Z,91.50
2023-04-06T06:02:47.383Z,91.20
2023-04-06T06:05:17.816Z,91.20
2023-04-06T06:07:45.147Z,91.20
2023-04-06T06:10:12.893Z,91.20
2023-04-06T06:12:42.370Z,91.00
2023-04-06T06:15:10.442Z,91.20
2023-04-06T06:17:39.001Z,91.00
2023-04-06T06:20:10.310Z,91.00
2023-04-06T06:22:38.064Z,91.00
2023-04-06T06:25:05.566Z,90.80
2023-04-06T06:27:32.954Z,90.40
2023-04-06T06:30:00.187Z,90.30
2023-04-06T06:32:27.574Z,90.40
2023-04-06T06:34:55.207Z,90.50
2023-04-06T06:37:22.373Z,90.70
2023-04-06T06:39:49.564Z,91.30
2023-04-06T06:42:16.787Z,91.10
2023-04-06T06:44:44.046Z,91.10
2023-04-06T06:47:11.410Z,91.10
2023-04-06T06:49:38.617Z,91.70
2023-04-06T06:52:05.886Z,92.10
2023-04-06T06:54:33.078Z,92.30
2023-04-06T06:57:00.442Z,92.10
2023-04-06T06:59:27.736Z,91.80
2023-04-06T07:01:54.937Z,91.00
2023-04-06T07:04:22.233Z,90.60
2023-04-06T07:06:49.502Z,89.00
2023-04-06T07:09:16.841Z,89.10
2023-04-06T07:11:44.067Z,87.90
2023-04-06T07:14:11.524Z,87.80
2023-04-06T07:16:38.852Z,88.00
2023-04-06T07:19:12.732Z,87.50
2023-04-06T07:21:40.638Z,87.70
2023-04-06T07:24:08.348Z,87.80
2023-04-06T07:26:35.794Z,89.50
2023-04-06T07:29:03.106Z,90.90
2023-04-06T07:31:31.012Z,90.50
2023-04-06T07:33:58.245Z,90.10
2023-04-06T07:36:25.461Z,71.90
2023-04-06T07:38:53.023Z,70.70
2023-04-06T07:41:20.229Z,70.20
2023-04-06T07:43:47.377Z,69.90
2023-04-06T07:46:14.605Z,68.90
2023-04-06T07:48:41.997Z,66.60
2023-04-06T07:51:09.486Z,66.80
2023-04-06T07:53:36.644Z,65.30
2023-04-06T07:56:04.072Z,65.30
2023-04-06T07:58:31.310Z,64.60
2023-04-06T08:00:58.447Z,64.10
2023-04-06T08:03:25.839Z,63.90
2023-04-06T08:05:54.061Z,63.90
2023-04-06T08:08:21.314Z,66.00
2023-04-06T08:10:51.688Z,67.00
2023-04-06T08:13:18.984Z,68.00
2023-04-06T08:15:46.363Z,65.10
2023-04-06T08:18:14.189Z,59.30
2023-04-06T08:20:41.812Z,59.50
2023-04-06T08:23:08.957Z,58.90
2023-04-06T08:25:37.911Z,58.70
2023-04-06T08:28:05.765Z,58.30
2023-04-06T08:30:33.313Z,57.70
2023-04-06T08:33:00.484Z,58.50
2023-04-06T08:35:28.738Z,57.60
2023-04-06T08:37:56.012Z,57.80
2023-04-06T08:40:23.558Z,56.60
2023-04-06T08:42:57.403Z,60.30
2023-04-06T08:45:25.134Z,59.60
2023-04-06T08:47:53.692Z,60.00
2023-04-06T08:50:22.139Z,58.40
2023-04-06T08:52:50.394Z,60.20
2023-04-06T08:55:17.861Z,61.30
2023-04-06T08:57:47.597Z,61.20
2023-04-06T09:00:17.576Z,64.00
2023-04-06T09:02:47.167Z,85.70
2023-04-06T09:05:14.773Z,77.30
2023-04-06T09:07:42.426Z,62.50
2023-04-06T09:10:10.283Z,54.10
2023-04-06T09:12:37.511Z,54.10
2023-04-06T09:15:05.619Z,54.80
2023-04-06T09:20:03.649Z,56.80
2023-04-06T09:22:39.256Z,55.60
2023-04-06T09:25:09.471Z,55.00
2023-04-06T09:27:38.839Z,52.70
2023-04-06T09:30:07.785Z,53.40
2023-04-06T09:32:56.292Z,53.60
2023-04-06T09:35:24.626Z,53.40
2023-04-06T09:37:54.121Z,53.40
2023-04-06T09:40:21.578Z,52.30
2023-04-06T09:42:50.952Z,51.60
2023-04-06T09:45:18.272Z,50.80
2023-04-06T09:47:47.257Z,51.10
2023-04-06T09:50:16.224Z,50.90
2023-04-06T09:52:55.156Z,51.80
2023-04-06T09:55:41.631Z,51.20
2023-04-06T09:58:14.469Z,50.60
2023-04-06T10:01:16.381Z,51.00
2023-04-06T10:04:26.198Z,49.80
2023-04-06T10:06:53.457Z,51.50
2023-04-06T10:09:29.262Z,52.40
2023-04-06T10:12:00.167Z,50.80
2023-04-06T10:14:27.786Z,50.30
2023-04-06T10:16:55.571Z,50.70
2023-04-06T10:19:32.422Z,51.40
2023-04-06T10:22:03.274Z,51.60
2023-04-06T10:24:30.485Z,50.60
2023-04-06T10:27:05.361Z,51.50
2023-04-06T10:29:47.745Z,50.60
2023-04-06T10:32:15.041Z,48.50
2023-04-06T10:34:42.617Z,48.60
2023-04-06T10:37:18.112Z,48.00
2023-04-06T10:39:54.614Z,46.20
2023-04-06T10:42:39.387Z,46.10
2023-04-06T10:47:42.435Z,43.00
2023-04-06T10:52:40.644Z,43.30
2023-04-06T10:57:37.901Z,40.00
2023-04-06T11:00:12.541Z,40.70
2023-04-06T11:02:39.888Z,40.50
2023-04-06T11:05:08.119Z,39.00
2023-04-06T11:07:35.349Z,39.40
2023-04-06T11:10:13.450Z,38.40
2023-04-06T11:12:43.056Z,38.10
2023-04-06T11:15:11.113Z,38.40
2023-04-06T11:20:12.787Z,36.10
2023-04-06T11:22:53.272Z,36.80
2023-04-06T11:25:20.983Z,34.80
2023-04-06T11:27:48.919Z,34.60
2023-04-06T11:30:16.515Z,36.60
2023-04-06T11:32:46.532Z,35.90
2023-04-06T11:35:24.691Z,34.40
2023-04-06T11:37:52.694Z,34.60
2023-04-06T11:40:24.305Z,35.20
2023-04-06T11:42:56.527Z,35.20
2023-04-06T11:45:24.486Z,34.00
2023-04-06T11:48:00.731Z,32.90
2023-04-06T11:50:34.443Z,33.00
2023-04-06T11:53:03.362Z,34.00
2023-04-06T11:55:37.850Z,33.90
2023-04-06T11:58:05.037Z,33.60
2023-04-06T12:03:00.025Z,32.20
2023-04-06T12:05:27.474Z,32.80
2023-04-06T12:07:54.705Z,33.00
2023-04-06T12:10:22.076Z,32.50
2023-04-06T12:12:49.296Z,32.50
2023-04-06T12:15:16.664Z,33.80
2023-04-06T12:17:44.022Z,33.20
2023-04-06T12:20:25.124Z,31.90
2023-04-06T12:22:54.032Z,33.00
2023-04-06T12:25:21.431Z,33.40
2023-04-06T12:27:48.900Z,34.40
2023-04-06T12:30:16.588Z,33.20
2023-04-06T12:32:43.793Z,33.60
2023-04-06T12:35:11.250Z,32.70
2023-04-06T12:37:38.544Z,33.50
2023-04-06T12:40:06.646Z,32.90
2023-04-06T12:42:33.914Z,32.40
2023-04-06T12:45:01.142Z,31.30
2023-04-06T12:47:28.478Z,32.80
2023-04-06T12:49:55.734Z,33.00
2023-04-06T12:52:22.982Z,33.10
2023-04-06T12:54:51.439Z,34.20
2023-04-06T12:57:18.781Z,33.70
2023-04-06T12:59:46.127Z,32.60
2023-04-06T13:02:13.525Z,32.50
2023-04-06T13:04:40.732Z,31.40
2023-04-06T13:07:07.908Z,30.80
2023-04-06T13:09:35.346Z,32.80
2023-04-06T13:12:02.641Z,32.90
2023-04-06T13:14:30.061Z,32.70
2023-04-06T13:16:57.343Z,32.90
2023-04-06T13:19:24.603Z,32.50
2023-04-06T13:21:51.892Z,32.40
2023-04-06T13:24:19.139Z,32.20
2023-04-06T13:26:46.526Z,32.80
2023-04-06T13:29:13.748Z,32.00
2023-04-06T13:31:40.943Z,31.80
2023-04-06T13:34:08.301Z,30.10
2023-04-06T13:36:35.620Z,31.80
2023-04-06T13:39:02.847Z,31.90
2023-04-06T13:41:30.032Z,33.20
2023-04-06T13:43:57.240Z,31.70
2023-04-06T13:46:25.170Z,30.90
2023-04-06T13:48:52.545Z,31.00
2023-04-06T13:51:19.814Z,31.00
2023-04-06T13:53:47.124Z,31.10
2023-04-06T13:56:14.294Z,30.20
2023-04-06T13:58:41.692Z,31.30
2023-04-06T14:01:10.480Z,31.40
2023-04-06T14:03:38.538Z,31.10
2023-04-06T14:06:26.880Z,31.40
2023-04-06T14:08:58.246Z,30.90
2023-04-06T14:11:25.783Z,31.10
2023-04-06T14:13:53.548Z,31.10
2023-04-06T14:16:24.484Z,31.40
2023-04-06T14:18:51.719Z,30.80
2023-04-06T14:21:18.947Z,30.10
2023-04-06T14:23:46.407Z,30.50
2023-04-06T14:26:13.800Z,30.50
2023-04-06T14:28:40.984Z,30.30
2023-04-06T14:31:14.375Z,29.20
2023-04-06T14:33:43.646Z,30.50
2023-04-06T14:36:11.203Z,30.10
2023-04-06T14:38:38.546Z,30.00
2023-04-06T14:41:05.803Z,30.10
2023-04-06T14:43:33.077Z,53.10
2023-04-06T14:46:03.535Z,51.80
2023-04-06T14:48:30.839Z,54.80
2023-04-06T14:50:58.506Z,54.70
2023-04-06T14:53:26.515Z,55.30
2023-04-06T14:55:54.243Z,57.40
2023-04-06T14:58:22.969Z,59.30
2023-04-06T15:00:55.984Z,63.00
2023-04-06T15:03:23.402Z,53.60
2023-04-06T15:05:50.704Z,51.80
2023-04-06T15:08:17.947Z,51.20
2023-04-06T15:10:45.097Z,51.00
2023-04-06T15:13:12.281Z,51.60
2023-04-06T15:15:42.463Z,51.40
2023-04-06T15:18:12.670Z,51.30
2023-04-06T15:20:39.851Z,52.40
2023-04-06T15:23:07.365Z,53.50
2023-04-06T15:25:38.327Z,52.90
2023-04-06T15:28:05.637Z,53.40
2023-04-06T15:30:32.922Z,53.80
2023-04-06T15:33:02.594Z,54.30
2023-04-06T15:35:33.614Z,54.80
2023-04-06T15:38:01.634Z,54.30
2023-04-06T15:40:29.493Z,54.60
2023-04-06T15:42:59.919Z,54.40
2023-04-06T15:45:27.186Z,55.20
2023-04-06T15:47:54.460Z,55.40
2023-04-06T15:50:21.882Z,54.30
2023-04-06T15:52:49.302Z,54.60
2023-04-06T15:55:16.535Z,52.30
2023-04-06T15:57:43.726Z,49.70
2023-04-06T16:00:12.138Z,30.70
2023-04-06T16:02:39.774Z,31.50
2023-04-06T16:05:07.520Z,32.00
2023-04-06T16:07:35.750Z,33.50
2023-04-06T16:10:03.307Z,45.40
2023-04-06T16:12:30.559Z,31.60
2023-04-06T16:14:57.802Z,38.30
2023-04-06T16:17:25.183Z,34.40
2023-04-06T16:19:52.418Z,33.60
2023-04-06T16:22:19.686Z,43.30
2023-04-06T16:24:46.902Z,32.10
2023-04-06T16:27:14.841Z,33.30
2023-04-06T16:29:42.010Z,33.50
2023-04-06T16:32:09.312Z,33.40
2023-04-06T16:34:36.600Z,33.40
2023-04-06T16:37:03.998Z,34.10
2023-04-06T16:39:31.161Z,34.60
2023-04-06T16:41:58.326Z,34.40
2023-04-06T16:44:25.782Z,35.30
2023-04-06T16:46:53.045Z,35.10
2023-04-06T16:49:20.262Z,35.10
2023-04-06T16:51:47.460Z,35.10
2023-04-06T16:54:14.658Z,35.40
2023-04-06T16:56:41.851Z,36.00
2023-04-06T16:59:09.593Z,36.10
2023-04-06T17:01:37.052Z,35.60
2023-04-06T17:04:04.480Z,36.80
2023-04-06T17:06:31.849Z,36.40
2023-04-06T17:08:59.449Z,36.90
2023-04-06T17:11:35.886Z,36.70
2023-04-06T17:14:10.886Z,37.10
2023-04-06T17:16:38.617Z,37.10
2023-04-06T17:19:07.680Z,37.40
2023-04-06T17:21:34.955Z,37.40
2023-04-06T17:24:02.164Z,38.20
2023-04-06T17:26:29.413Z,38.10
2023-04-06T17:28:56.664Z,38.10
2023-04-06T17:31:24.004Z,38.60
2023-04-06T17:33:51.368Z,38.90
2023-04-06T17:38:48.620Z,39.20
2023-04-06T17:41:16.086Z,40.00
2023-04-06T17:43:43.325Z,40.30
2023-04-06T17:46:10.814Z,41.20
2023-04-06T17:51:05.632Z,42.00
2023-04-06T17:53:32.995Z,43.00
2023-04-06T17:56:04.776Z,43.90
2023-04-06T17:58:31.923Z,44.60
2023-04-06T18:00:59.065Z,45.00
2023-04-06T18:03:26.224Z,46.20
2023-04-06T18:05:53.432Z,46.50
2023-04-06T18:08:20.584Z,46.70
2023-04-06T18:10:47.815Z,47.60
2023-04-06T18:13:14.942Z,48.10
2023-04-06T18:15:42.296Z,47.70
2023-04-06T18:18:09.448Z,48.50
2023-04-06T18:20:40.858Z,48.60
2023-04-06T18:23:08.125Z,49.20
2023-04-06T18:25:39.915Z,49.70
2023-04-06T18:28:08.973Z,50.20
2023-04-06T18:30:36.508Z,50.40
2023-04-06T18:33:05.006Z,51.10
2023-04-06T18:35:32.436Z,51.50
2023-04-06T18:37:59.601Z,51.40
2023-04-06T18:40:35.667Z,51.40
2023-04-06T18:43:05.657Z,51.90
2023-04-06T18:45:36.763Z,52.00
2023-04-06T18:48:04.574Z,52.90
2023-04-06T18:50:31.818Z,55.10
2023-04-06T18:52:59.117Z,56.00
2023-04-06T18:55:26.402Z,57.00
2023-04-06T19:00:21.349Z,54.20
2023-04-06T19:02:48.889Z,55.00
2023-04-06T19:05:16.409Z,55.00
2023-04-06T19:07:43.790Z,55.10
2023-04-06T19:10:11.363Z,55.30
2023-04-06T19:12:40.093Z,55.00
2023-04-06T19:15:08.667Z,54.90
2023-04-06T19:17:36.267Z,55.30
2023-04-06T19:20:03.830Z,56.00
2023-04-06T19:22:31.357Z,56.40
2023-04-06T19:24:58.507Z,56.90
2023-04-06T19:27:25.920Z,56.80
2023-04-06T19:29:53.058Z,56.80
2023-04-06T19:32:20.374Z,57.20
2023-04-06T19:34:47.639Z,57.60
2023-04-06T19:37:15.299Z,58.40
2023-04-06T19:39:42.818Z,57.70
2023-04-06T19:42:11.063Z,57.70
2023-04-06T19:44:38.356Z,57.90
2023-04-06T19:47:05.529Z,57.70
2023-04-06T19:49:32.689Z,58.30
2023-04-06T19:51:59.953Z,58.50
2023-04-06T19:54:27.387Z,58.60
2023-04-06T19:56:54.693Z,58.70
2023-04-06T19:59:22.141Z,59.30
2023-04-06T20:04:17.431Z,58.70
2023-04-06T20:06:44.609Z,59.40
2023-04-06T20:09:12.129Z,59.50
2023-04-06T20:11:39.532Z,59.60
2023-04-06T20:16:35.009Z,59.30
2023-04-06T20:19:02.430Z,60.60
2023-04-06T20:21:29.724Z,60.50
2023-04-06T20:23:57.263Z,61.40
2023-04-06T20:26:24.605Z,61.50
2023-04-06T20:28:51.807Z,62.60
2023-04-06T20:31:19.082Z,62.80
2023-04-06T20:33:46.280Z,61.80
2023-04-06T20:36:13.438Z,62.00
2023-04-06T20:38:40.634Z,61.10
2023-04-06T20:41:08.698Z,60.70
2023-04-06T20:43:36.541Z,62.40
2023-04-06T20:46:04.008Z,63.40
2023-04-06T20:51:03.957Z,62.60
2023-04-06T20:53:31.462Z,63.70
2023-04-06T20:56:00.864Z,64.00
2023-04-06T20:58:28.465Z,64.00
2023-04-06T21:00:55.745Z,64.70
2023-04-06T21:03:23.120Z,65.00
2023-04-06T21:05:55.871Z,64.20
2023-04-06T21:08:23.727Z,64.90
2023-04-06T21:10:51.031Z,64.90
2023-04-06T21:13:21.309Z,64.70
2023-04-06T21:15:48.591Z,64.70
2023-04-06T21:18:15.793Z,64.80
2023-04-06T21:20:44.323Z,64.90
2023-04-06T21:23:11.677Z,64.60
2023-04-06T21:25:39.029Z,65.40
2023-04-06T21:28:06.198Z,65.40
2023-04-06T21:30:33.583Z,64.60
2023-04-06T21:33:00.763Z,65.40
2023-04-06T21:35:27.964Z,65.70
2023-04-06T21:37:55.148Z,65.60
2023-04-06T21:40:22.471Z,65.80
2023-04-06T21:42:49.664Z,65.70
2023-04-06T21:45:16.972Z,66.30
2023-04-06T21:47:44.077Z,66.80
2023-04-06T21:50:11.487Z,67.00
2023-04-06T21:52:38.933Z,66.40
2023-04-06T21:57:33.891Z,67.00
2023-04-06T22:00:01.146Z,68.10
2023-04-06T22:02:28.459Z,67.90
2023-04-06T22:04:55.827Z,67.70
2023-04-06T22:07:22.986Z,68.10
2023-04-06T22:09:51.995Z,68.10
2023-04-06T22:12:20.567Z,67.40
2023-04-06T22:14:47.773Z,67.80
2023-04-06T22:17:15.254Z,66.80
2023-04-06T22:19:42.527Z,67.60
2023-04-06T22:22:09.968Z,68.20
2023-04-06T22:24:37.356Z,69.00
2023-04-06T22:27:04.491Z,69.70
2023-04-06T22:29:31.762Z,69.30
2023-04-06T22:31:58.928Z,69.10
2023-04-06T22:34:26.035Z,69.70
2023-04-06T22:36:53.215Z,70.20
2023-04-06T22:39:20.375Z,70.30
2023-04-06T22:41:47.538Z,69.70
2023-04-06T22:44:15.142Z,69.60
2023-04-06T22:46:42.639Z,69.40
2023-04-06T22:49:09.835Z,69.20
2023-04-06T22:54:04.528Z,97.90
2023-04-06T22:56:31.687Z,97.00
2023-04-06T22:58:58.848Z,94.30
2023-04-06T23:01:26.072Z,88.70
2023-04-06T23:03:53.353Z,90.40
2023-04-06T23:06:20.545Z,88.80
2023-04-06T23:08:47.816Z,88.30
2023-04-06T23:11:14.995Z,94.70
2023-04-06T23:13:42.122Z,91.40
2023-04-06T23:16:09.701Z,99.00
2023-04-06T23:18:37.076Z,82.80
2023-04-06T23:21:08.875Z,84.20
2023-04-06T23:23:36.562Z,83.80
2023-04-06T23:26:04.146Z,82.90
2023-04-06T23:28:31.516Z,83.30
2023-04-06T23:30:59.102Z,79.20
2023-04-06T23:55:34.912Z,71.00
2023-04-06T23:58:02.289Z,72.80
